sensor_id;sensor_type;location;lat;lon;timestamp;temperature;humidity
28715;DHT22;15886;49.170;14.572;2022-07-06T00:16:42;21.10;93.90
28715;DHT22;15886;49.170;14.572;2022-07-06T03:42:15;19.60;93.40
28715;DHT22;15886;49.170;14.572;2022-07-06T03:45:01;19.60;93.00
28715;DHT22;15886;49.170;14.572;2022-07-06T04:00:52;19.70;92.20
28715;DHT22;15886;49.170;14.572;2022-07-06T04:03:42;19.70;92.10
28715;DHT22;15886;49.170;14.572;2022-07-06T04:06:18;19.60;92.40
28715;DHT22;15886;49.170;14.572;2022-07-06T04:12:14;19.50;92.50
28715;DHT22;15886;49.170;14.572;2022-07-06T04:14:50;19.40;92.20
28715;DHT22;15886;49.170;14.572;2022-07-06T04:19:51;19.40;92.60
28715;DHT22;15886;49.170;14.572;2022-07-06T04:22:21;19.40;92.20
28715;DHT22;15886;49.170;14.572;2022-07-06T04:25:20;19.40;92.30
28715;DHT22;15886;49.170;14.572;2022-07-06T04:28:00;19.30;92.90
28715;DHT22;15886;49.170;14.572;2022-07-06T04:30:30;19.30;93.00
28715;DHT22;15886;49.170;14.572;2022-07-06T04:32:58;19.30;92.90
28715;DHT22;15886;49.170;14.572;2022-07-06T04:35:29;19.30;93.00
28715;DHT22;15886;49.170;14.572;2022-07-06T04:37:58;19.30;92.80
28715;DHT22;15886;49.170;14.572;2022-07-06T04:40:26;19.20;93.10
28715;DHT22;15886;49.170;14.572;2022-07-06T04:42:58;19.30;93.30
28715;DHT22;15886;49.170;14.572;2022-07-06T04:45:31;19.30;93.30
28715;DHT22;15886;49.170;14.572;2022-07-06T05:27:49;20.00;93.60
28715;DHT22;15886;49.170;14.572;2022-07-06T05:30:38;20.00;93.50
28715;DHT22;15886;49.170;14.572;2022-07-06T05:36:12;20.00;94.10
28715;DHT22;15886;49.170;14.572;2022-07-06T05:42:09;20.10;94.20
28715;DHT22;15886;49.170;14.572;2022-07-06T05:51:32;20.10;94.20
28715;DHT22;15886;49.170;14.572;2022-07-06T06:44:39;20.70;94.30
28715;DHT22;15886;49.170;14.572;2022-07-06T06:50:09;20.80;93.90
28715;DHT22;15886;49.170;14.572;2022-07-06T06:53:23;20.80;94.00
28715;DHT22;15886;49.170;14.572;2022-07-06T06:55:52;20.90;93.40
28715;DHT22;15886;49.170;14.572;2022-07-06T06:58:50;20.90;93.20
28715;DHT22;15886;49.170;14.572;2022-07-06T07:01:38;20.90;93.90
28715;DHT22;15886;49.170;14.572;2022-07-06T07:04:09;21.00;94.10
28715;DHT22;15886;49.170;14.572;2022-07-06T07:06:38;21.00;94.20
28715;DHT22;15886;49.170;14.572;2022-07-06T07:09:12;21.00;93.90
28715;DHT22;15886;49.170;14.572;2022-07-06T07:11:43;21.10;94.20
28715;DHT22;15886;49.170;14.572;2022-07-06T07:14:26;21.20;94.20
28715;DHT22;15886;49.170;14.572;2022-07-06T07:16:59;21.20;93.90
28715;DHT22;15886;49.170;14.572;2022-07-06T07:19:27;21.20;93.00
28715;DHT22;15886;49.170;14.572;2022-07-06T07:21:55;21.20;93.40
28715;DHT22;15886;49.170;14.572;2022-07-06T07:24:23;21.30;93.00
28715;DHT22;15886;49.170;14.572;2022-07-06T07:26:52;21.30;93.30
28715;DHT22;15886;49.170;14.572;2022-07-06T07:33:14;21.40;92.90
28715;DHT22;15886;49.170;14.572;2022-07-06T07:41:55;21.50;92.50
28715;DHT22;15886;49.170;14.572;2022-07-06T07:44:26;21.50;92.90
28715;DHT22;15886;49.170;14.572;2022-07-06T07:46:55;21.60;92.80
28715;DHT22;15886;49.170;14.572;2022-07-06T07:49:23;21.50;93.00
28715;DHT22;15886;49.170;14.572;2022-07-06T07:51:51;21.60;93.30
28715;DHT22;15886;49.170;14.572;2022-07-06T07:54:19;21.50;93.80
28715;DHT22;15886;49.170;14.572;2022-07-06T07:56:47;21.50;93.60
28715;DHT22;15886;49.170;14.572;2022-07-06T07:59:22;21.60;93.50
28715;DHT22;15886;49.170;14.572;2022-07-06T08:01:57;21.60;92.60
28715;DHT22;15886;49.170;14.572;2022-07-06T08:04:32;21.60;91.10
28715;DHT22;15886;49.170;14.572;2022-07-06T08:07:07;21.60;91.00
28715;DHT22;15886;49.170;14.572;2022-07-06T08:14:12;21.60;90.00
28715;DHT22;15886;49.170;14.572;2022-07-06T08:17:05;21.70;90.20
28715;DHT22;15886;49.170;14.572;2022-07-06T08:32:38;21.80;87.00
28715;DHT22;15886;49.170;14.572;2022-07-06T08:35:50;21.90;87.00
28715;DHT22;15886;49.170;14.572;2022-07-06T08:44:44;22.00;86.80
28715;DHT22;15886;49.170;14.572;2022-07-06T08:47:14;22.00;87.00
28715;DHT22;15886;49.170;14.572;2022-07-06T08:49:45;22.00;87.90
28715;DHT22;15886;49.170;14.572;2022-07-06T08:52:15;22.10;87.70
28715;DHT22;15886;49.170;14.572;2022-07-06T08:54:44;22.10;86.30
28715;DHT22;15886;49.170;14.572;2022-07-06T08:57:13;22.20;88.70
28715;DHT22;15886;49.170;14.572;2022-07-06T08:59:41;22.30;89.40
28715;DHT22;15886;49.170;14.572;2022-07-06T09:02:11;22.30;88.70
28715;DHT22;15886;49.170;14.572;2022-07-06T09:04:43;22.40;88.10
28715;DHT22;15886;49.170;14.572;2022-07-06T09:07:13;22.40;85.10
28715;DHT22;15886;49.170;14.572;2022-07-06T09:09:50;22.40;84.10
28715;DHT22;15886;49.170;14.572;2022-07-06T09:12:19;22.50;83.80
28715;DHT22;15886;49.170;14.572;2022-07-06T09:14:47;22.50;84.50
28715;DHT22;15886;49.170;14.572;2022-07-06T09:17:15;22.60;84.00
28715;DHT22;15886;49.170;14.572;2022-07-06T09:19:45;22.60;83.30
28715;DHT22;15886;49.170;14.572;2022-07-06T09:22:33;22.70;82.60
28715;DHT22;15886;49.170;14.572;2022-07-06T09:25:09;22.70;82.70
28715;DHT22;15886;49.170;14.572;2022-07-06T09:27:40;22.80;83.70
28715;DHT22;15886;49.170;14.572;2022-07-06T09:30:11;22.90;83.70
28715;DHT22;15886;49.170;14.572;2022-07-06T09:32:51;23.00;85.30
28715;DHT22;15886;49.170;14.572;2022-07-06T09:35:54;23.00;85.70
28715;DHT22;15886;49.170;14.572;2022-07-06T09:38:28;23.10;83.20
28715;DHT22;15886;49.170;14.572;2022-07-06T09:41:02;23.10;83.60
28715;DHT22;15886;49.170;14.572;2022-07-06T09:43:32;23.10;81.80
28715;DHT22;15886;49.170;14.572;2022-07-06T09:46:02;23.20;83.20
28715;DHT22;15886;49.170;14.572;2022-07-06T09:48:33;23.30;81.90
28715;DHT22;15886;49.170;14.572;2022-07-06T09:51:05;23.30;81.20
28715;DHT22;15886;49.170;14.572;2022-07-06T09:53:35;23.30;80.80
28715;DHT22;15886;49.170;14.572;2022-07-06T09:56:04;23.30;80.80
28715;DHT22;15886;49.170;14.572;2022-07-06T09:58:39;23.40;82.50
28715;DHT22;15886;49.170;14.572;2022-07-06T10:01:32;23.40;82.60
28715;DHT22;15886;49.170;14.572;2022-07-06T10:04:10;23.60;86.20
28715;DHT22;15886;49.170;14.572;2022-07-06T10:06:58;23.70;86.80
28715;DHT22;15886;49.170;14.572;2022-07-06T10:09:54;23.70;87.30
28715;DHT22;15886;49.170;14.572;2022-07-06T10:12:54;23.60;90.40
28715;DHT22;15886;49.170;14.572;2022-07-06T10:16:12;23.70;91.10
28715;DHT22;15886;49.170;14.572;2022-07-06T10:18:54;23.80;89.30
28715;DHT22;15886;49.170;14.572;2022-07-06T10:21:40;23.80;87.70
28715;DHT22;15886;49.170;14.572;2022-07-06T10:24:19;23.90;88.80
28715;DHT22;15886;49.170;14.572;2022-07-06T10:26:48;24.00;83.60
28715;DHT22;15886;49.170;14.572;2022-07-06T10:29:16;24.10;86.90
28715;DHT22;15886;49.170;14.572;2022-07-06T10:31:46;24.20;89.10
28715;DHT22;15886;49.170;14.572;2022-07-06T10:34:18;24.20;84.30
28715;DHT22;15886;49.170;14.572;2022-07-06T10:36:53;24.20;83.50
28715;DHT22;15886;49.170;14.572;2022-07-06T10:39:32;24.30;86.80
28715;DHT22;15886;49.170;14.572;2022-07-06T10:42:48;24.40;82.90
28715;DHT22;15886;49.170;14.572;2022-07-06T10:48:22;24.40;84.40
28715;DHT22;15886;49.170;14.572;2022-07-06T10:50:59;24.40;85.10
28715;DHT22;15886;49.170;14.572;2022-07-06T10:53:32;24.60;84.90
28715;DHT22;15886;49.170;14.572;2022-07-06T10:56:06;24.70;83.00
28715;DHT22;15886;49.170;14.572;2022-07-06T10:58:55;24.80;86.80
28715;DHT22;15886;49.170;14.572;2022-07-06T11:02:17;24.90;86.70
28715;DHT22;15886;49.170;14.572;2022-07-06T11:04:53;25.00;84.20
28715;DHT22;15886;49.170;14.572;2022-07-06T11:07:50;25.00;81.70
28715;DHT22;15886;49.170;14.572;2022-07-06T11:10:22;25.00;86.40
28715;DHT22;15886;49.170;14.572;2022-07-06T11:37:51;25.10;84.60
28715;DHT22;15886;49.170;14.572;2022-07-06T11:40:20;25.20;79.80
28715;DHT22;15886;49.170;14.572;2022-07-06T11:58:50;25.10;80.50
28715;DHT22;15886;49.170;14.572;2022-07-06T12:08:02;25.30;79.00
28715;DHT22;15886;49.170;14.572;2022-07-06T12:11:10;25.30;79.70
28715;DHT22;15886;49.170;14.572;2022-07-06T12:13:47;25.40;80.10
28715;DHT22;15886;49.170;14.572;2022-07-06T12:16:37;25.50;80.80
28715;DHT22;15886;49.170;14.572;2022-07-06T12:19:05;25.60;77.20
28715;DHT22;15886;49.170;14.572;2022-07-06T12:21:45;25.60;78.00
28715;DHT22;15886;49.170;14.572;2022-07-06T12:24:26;25.60;79.50
28715;DHT22;15886;49.170;14.572;2022-07-06T12:27:17;25.70;78.30
28715;DHT22;15886;49.170;14.572;2022-07-06T12:29:47;25.50;76.30
28715;DHT22;15886;49.170;14.572;2022-07-06T12:32:18;25.50;77.20
28715;DHT22;15886;49.170;14.572;2022-07-06T12:35:07;25.50;75.50
28715;DHT22;15886;49.170;14.572;2022-07-06T12:37:36;25.60;80.00
28715;DHT22;15886;49.170;14.572;2022-07-06T12:40:16;25.50;82.30
28715;DHT22;15886;49.170;14.572;2022-07-06T12:42:48;25.60;80.30
28715;DHT22;15886;49.170;14.572;2022-07-06T12:45:36;25.60;73.10
28715;DHT22;15886;49.170;14.572;2022-07-06T12:48:23;25.70;72.50
28715;DHT22;15886;49.170;14.572;2022-07-06T12:51:06;25.80;70.30
28715;DHT22;15886;49.170;14.572;2022-07-06T12:53:47;25.90;69.90
28715;DHT22;15886;49.170;14.572;2022-07-06T12:56:36;25.90;68.30
28715;DHT22;15886;49.170;14.572;2022-07-06T12:59:22;26.00;67.10
28715;DHT22;15886;49.170;14.572;2022-07-06T13:01:55;26.00;67.70
28715;DHT22;15886;49.170;14.572;2022-07-06T13:04:36;26.00;66.00
28715;DHT22;15886;49.170;14.572;2022-07-06T13:07:19;26.00;64.90
28715;DHT22;15886;49.170;14.572;2022-07-06T13:09:47;25.90;65.50
28715;DHT22;15886;49.170;14.572;2022-07-06T13:12:18;25.90;66.90
28715;DHT22;15886;49.170;14.572;2022-07-06T13:14:47;25.90;67.50
28715;DHT22;15886;49.170;14.572;2022-07-06T13:17:18;26.00;67.40
28715;DHT22;15886;49.170;14.572;2022-07-06T13:19:48;25.90;63.70
28715;DHT22;15886;49.170;14.572;2022-07-06T13:22:18;25.90;64.90
28715;DHT22;15886;49.170;14.572;2022-07-06T13:24:48;26.00;64.60
28715;DHT22;15886;49.170;14.572;2022-07-06T13:27:21;26.00;64.40
28715;DHT22;15886;49.170;14.572;2022-07-06T13:29:52;26.00;63.40
28715;DHT22;15886;49.170;14.572;2022-07-06T13:32:22;26.10;67.60
28715;DHT22;15886;49.170;14.572;2022-07-06T13:34:51;26.20;64.80
28715;DHT22;15886;49.170;14.572;2022-07-06T13:37:22;26.20;66.30
28715;DHT22;15886;49.170;14.572;2022-07-06T13:39:50;26.20;67.60
28715;DHT22;15886;49.170;14.572;2022-07-06T13:42:20;26.20;66.40
28715;DHT22;15886;49.170;14.572;2022-07-06T13:44:50;26.10;62.30
28715;DHT22;15886;49.170;14.572;2022-07-06T13:47:20;26.10;63.90
28715;DHT22;15886;49.170;14.572;2022-07-06T13:49:50;26.00;62.50
28715;DHT22;15886;49.170;14.572;2022-07-06T13:52:23;26.00;64.50
28715;DHT22;15886;49.170;14.572;2022-07-06T13:54:54;25.90;62.10
28715;DHT22;15886;49.170;14.572;2022-07-06T13:57:28;25.90;65.90
28715;DHT22;15886;49.170;14.572;2022-07-06T13:59:59;25.80;63.10
28715;DHT22;15886;49.170;14.572;2022-07-06T14:02:35;25.70;62.30
28715;DHT22;15886;49.170;14.572;2022-07-06T14:05:05;25.80;63.20
28715;DHT22;15886;49.170;14.572;2022-07-06T14:07:36;25.80;66.40
28715;DHT22;15886;49.170;14.572;2022-07-06T14:10:31;25.90;66.50
28715;DHT22;15886;49.170;14.572;2022-07-06T14:13:00;25.90;63.30
28715;DHT22;15886;49.170;14.572;2022-07-06T14:15:30;26.00;65.20
28715;DHT22;15886;49.170;14.572;2022-07-06T14:17:58;26.00;62.00
28715;DHT22;15886;49.170;14.572;2022-07-06T14:20:27;25.90;62.50
28715;DHT22;15886;49.170;14.572;2022-07-06T14:22:56;25.90;62.50
28715;DHT22;15886;49.170;14.572;2022-07-06T14:25:26;25.90;62.50
28715;DHT22;15886;49.170;14.572;2022-07-06T14:27:56;26.00;66.70
28715;DHT22;15886;49.170;14.572;2022-07-06T14:30:25;26.00;61.80
28715;DHT22;15886;49.170;14.572;2022-07-06T14:32:55;26.00;64.70
28715;DHT22;15886;49.170;14.572;2022-07-06T14:35:27;26.00;62.90
28715;DHT22;15886;49.170;14.572;2022-07-06T14:37:56;26.10;63.10
28715;DHT22;15886;49.170;14.572;2022-07-06T14:40:25;26.10;60.50
28715;DHT22;15886;49.170;14.572;2022-07-06T14:42:55;26.00;61.90
28715;DHT22;15886;49.170;14.572;2022-07-06T14:45:42;26.00;59.60
28715;DHT22;15886;49.170;14.572;2022-07-06T14:48:32;25.90;62.40
28715;DHT22;15886;49.170;14.572;2022-07-06T14:51:07;25.90;62.70
28715;DHT22;15886;49.170;14.572;2022-07-06T14:53:43;25.90;61.70
28715;DHT22;15886;49.170;14.572;2022-07-06T14:56:28;25.80;62.90
28715;DHT22;15886;49.170;14.572;2022-07-06T14:59:02;25.80;63.40
28715;DHT22;15886;49.170;14.572;2022-07-06T15:01:49;25.80;61.50
28715;DHT22;15886;49.170;14.572;2022-07-06T15:04:18;25.80;61.00
28715;DHT22;15886;49.170;14.572;2022-07-06T15:06:48;25.70;60.00
28715;DHT22;15886;49.170;14.572;2022-07-06T15:09:21;25.80;59.70
28715;DHT22;15886;49.170;14.572;2022-07-06T15:11:52;25.70;59.70
28715;DHT22;15886;49.170;14.572;2022-07-06T15:15:00;25.80;59.20
28715;DHT22;15886;49.170;14.572;2022-07-06T15:17:45;25.80;59.40
28715;DHT22;15886;49.170;14.572;2022-07-06T15:20:26;25.80;60.10
28715;DHT22;15886;49.170;14.572;2022-07-06T15:22:54;25.80;59.60
28715;DHT22;15886;49.170;14.572;2022-07-06T15:25:23;25.80;60.60
28715;DHT22;15886;49.170;14.572;2022-07-06T15:27:53;25.80;62.20
28715;DHT22;15886;49.170;14.572;2022-07-06T15:30:34;25.90;63.60
28715;DHT22;15886;49.170;14.572;2022-07-06T15:33:04;25.90;61.00
28715;DHT22;15886;49.170;14.572;2022-07-06T15:35:36;25.90;59.80
28715;DHT22;15886;49.170;14.572;2022-07-06T15:38:04;25.90;59.20
28715;DHT22;15886;49.170;14.572;2022-07-06T15:40:34;25.90;61.10
28715;DHT22;15886;49.170;14.572;2022-07-06T15:43:10;25.90;61.80
28715;DHT22;15886;49.170;14.572;2022-07-06T15:45:41;25.90;62.70
28715;DHT22;15886;49.170;14.572;2022-07-06T15:48:09;25.80;60.60
28715;DHT22;15886;49.170;14.572;2022-07-06T15:50:38;25.80;60.00
28715;DHT22;15886;49.170;14.572;2022-07-06T15:53:09;25.80;59.30
28715;DHT22;15886;49.170;14.572;2022-07-06T15:55:38;25.70;58.40
28715;DHT22;15886;49.170;14.572;2022-07-06T15:58:17;25.60;59.10
28715;DHT22;15886;49.170;14.572;2022-07-06T16:00:48;25.60;59.00
28715;DHT22;15886;49.170;14.572;2022-07-06T16:03:18;25.60;58.60
28715;DHT22;15886;49.170;14.572;2022-07-06T16:05:47;25.60;60.00
28715;DHT22;15886;49.170;14.572;2022-07-06T16:08:38;25.50;59.90
28715;DHT22;15886;49.170;14.572;2022-07-06T16:11:17;25.50;60.90
28715;DHT22;15886;49.170;14.572;2022-07-06T16:13:46;25.50;60.90
28715;DHT22;15886;49.170;14.572;2022-07-06T16:16:23;25.50;61.20
28715;DHT22;15886;49.170;14.572;2022-07-06T16:18:52;25.60;60.00
28715;DHT22;15886;49.170;14.572;2022-07-06T16:21:22;25.50;59.40
28715;DHT22;15886;49.170;14.572;2022-07-06T16:23:50;25.50;59.30
28715;DHT22;15886;49.170;14.572;2022-07-06T16:26:19;25.60;63.20
28715;DHT22;15886;49.170;14.572;2022-07-06T16:28:47;25.50;63.00
28715;DHT22;15886;49.170;14.572;2022-07-06T16:31:16;25.50;60.40
28715;DHT22;15886;49.170;14.572;2022-07-06T16:33:45;25.50;59.50
28715;DHT22;15886;49.170;14.572;2022-07-06T16:36:13;25.50;59.10
28715;DHT22;15886;49.170;14.572;2022-07-06T16:38:43;25.50;58.70
28715;DHT22;15886;49.170;14.572;2022-07-06T16:41:12;25.50;58.90
28715;DHT22;15886;49.170;14.572;2022-07-06T16:43:40;25.50;59.30
28715;DHT22;15886;49.170;14.572;2022-07-06T16:46:09;25.50;58.80
28715;DHT22;15886;49.170;14.572;2022-07-06T16:48:40;25.50;60.00
28715;DHT22;15886;49.170;14.572;2022-07-06T16:51:08;25.50;59.10
28715;DHT22;15886;49.170;14.572;2022-07-06T16:53:39;25.50;59.60
28715;DHT22;15886;49.170;14.572;2022-07-06T16:56:07;25.50;62.90
28715;DHT22;15886;49.170;14.572;2022-07-06T16:58:35;25.40;64.10
28715;DHT22;15886;49.170;14.572;2022-07-06T17:01:04;25.40;60.60
28715;DHT22;15886;49.170;14.572;2022-07-06T17:03:34;25.40;60.30
28715;DHT22;15886;49.170;14.572;2022-07-06T17:06:03;25.30;59.70
28715;DHT22;15886;49.170;14.572;2022-07-06T17:21:15;25.20;58.90
28715;DHT22;15886;49.170;14.572;2022-07-06T17:24:29;25.10;59.50
28715;DHT22;15886;49.170;14.572;2022-07-06T17:26:57;25.10;59.80
28715;DHT22;15886;49.170;14.572;2022-07-06T17:29:26;25.00;59.60
28715;DHT22;15886;49.170;14.572;2022-07-06T17:31:54;25.00;59.90
28715;DHT22;15886;49.170;14.572;2022-07-06T17:34:23;25.00;61.40
28715;DHT22;15886;49.170;14.572;2022-07-06T17:36:51;24.90;60.80
28715;DHT22;15886;49.170;14.572;2022-07-06T17:39:20;24.90;62.30
28715;DHT22;15886;49.170;14.572;2022-07-06T17:41:49;24.90;61.90
28715;DHT22;15886;49.170;14.572;2022-07-06T17:44:17;24.80;61.60
28715;DHT22;15886;49.170;14.572;2022-07-06T17:46:45;24.80;61.00
28715;DHT22;15886;49.170;14.572;2022-07-06T17:49:14;24.80;60.50
28715;DHT22;15886;49.170;14.572;2022-07-06T17:51:45;24.80;60.50
28715;DHT22;15886;49.170;14.572;2022-07-06T17:54:13;24.80;61.60
28715;DHT22;15886;49.170;14.572;2022-07-06T17:56:41;24.80;63.30
28715;DHT22;15886;49.170;14.572;2022-07-06T17:59:09;24.80;64.30
28715;DHT22;15886;49.170;14.572;2022-07-06T18:01:38;24.80;65.90
28715;DHT22;15886;49.170;14.572;2022-07-06T18:04:31;24.80;66.60
28715;DHT22;15886;49.170;14.572;2022-07-06T18:07:14;24.70;66.60
28715;DHT22;15886;49.170;14.572;2022-07-06T18:10:43;24.70;69.30
28715;DHT22;15886;49.170;14.572;2022-07-06T18:16:29;24.60;70.80
28715;DHT22;15886;49.170;14.572;2022-07-06T18:19:03;24.40;71.80
28715;DHT22;15886;49.170;14.572;2022-07-06T18:21:31;24.30;71.10
28715;DHT22;15886;49.170;14.572;2022-07-06T18:24:00;24.30;71.40
28715;DHT22;15886;49.170;14.572;2022-07-06T18:26:28;24.30;72.20
28715;DHT22;15886;49.170;14.572;2022-07-06T18:28:59;24.30;74.70
28715;DHT22;15886;49.170;14.572;2022-07-06T18:31:48;24.30;75.50
28715;DHT22;15886;49.170;14.572;2022-07-06T18:37:12;24.10;73.30
28715;DHT22;15886;49.170;14.572;2022-07-06T18:42:52;24.10;75.40
28715;DHT22;15886;49.170;14.572;2022-07-06T18:45:24;24.00;76.70
28715;DHT22;15886;49.170;14.572;2022-07-06T18:47:55;23.90;77.00
28715;DHT22;15886;49.170;14.572;2022-07-06T18:50:23;23.80;77.00
28715;DHT22;15886;49.170;14.572;2022-07-06T18:53:18;23.70;76.20
28715;DHT22;15886;49.170;14.572;2022-07-06T18:56:13;23.60;76.50
28715;DHT22;15886;49.170;14.572;2022-07-06T18:58:45;23.50;77.20
28715;DHT22;15886;49.170;14.572;2022-07-06T19:01:19;23.50;77.50
28715;DHT22;15886;49.170;14.572;2022-07-06T19:10:00;23.20;77.90
28715;DHT22;15886;49.170;14.572;2022-07-06T19:12:29;23.10;78.60
28715;DHT22;15886;49.170;14.572;2022-07-06T19:18:02;22.90;79.20
28715;DHT22;15886;49.170;14.572;2022-07-06T19:30:05;22.50;81.30
28715;DHT22;15886;49.170;14.572;2022-07-06T19:33:01;22.40;81.60
28715;DHT22;15886;49.170;14.572;2022-07-06T19:38:46;22.30;81.70
28715;DHT22;15886;49.170;14.572;2022-07-06T19:41:30;22.30;79.90
28715;DHT22;15886;49.170;14.572;2022-07-06T19:44:16;22.20;78.80
28715;DHT22;15886;49.170;14.572;2022-07-06T19:46:50;22.20;78.90
28715;DHT22;15886;49.170;14.572;2022-07-06T19:49:33;22.20;80.10
28715;DHT22;15886;49.170;14.572;2022-07-06T19:52:27;22.20;79.50
28715;DHT22;15886;49.170;14.572;2022-07-06T19:54:56;22.10;80.10
28715;DHT22;15886;49.170;14.572;2022-07-06T19:57:32;22.00;80.10
28715;DHT22;15886;49.170;14.572;2022-07-06T20:00:02;21.90;78.50
28715;DHT22;15886;49.170;14.572;2022-07-06T20:02:34;21.90;79.40
28715;DHT22;15886;49.170;14.572;2022-07-06T20:05:06;21.90;79.30
28715;DHT22;15886;49.170;14.572;2022-07-06T20:08:24;21.80;79.30
28715;DHT22;15886;49.170;14.572;2022-07-06T20:11:10;21.90;78.80
28715;DHT22;15886;49.170;14.572;2022-07-06T20:13:43;21.90;78.50
28715;DHT22;15886;49.170;14.572;2022-07-06T23:59:03;20.00;81.30
